createdAt,value
2023-02-20T00:02:21.431Z,1.00
2023-02-20T00:04:50.045Z,1.00
2023-02-20T00:07:18.650Z,1.00
2023-02-20T00:09:46.989Z,1.00
2023-02-20T00:12:15.404Z,1.00
2023-02-20T00:14:43.757Z,1.00
2023-02-20T00:17:12.124Z,1.00
2023-02-20T00:19:40.485Z,1.00
2023-02-20T00:22:08.904Z,1.00
2023-02-20T00:24:37.256Z,1.00
2023-02-20T00:27:06.103Z,1.00
2023-02-20T00:29:34.685Z,1.00
2023-02-20T00:32:03.801Z,1.00
2023-02-20T00:34:32.265Z,1.00
2023-02-20T00:37:00.627Z,1.00
2023-02-20T00:39:30.054Z,1.00
2023-02-20T00:41:58.721Z,1.00
2023-02-20T00:44:27.604Z,1.00
2023-02-20T00:46:56.035Z,1.00
2023-02-20T00:49:24.650Z,1.00
2023-02-20T00:51:53.012Z,1.00
2023-02-20T00:54:21.358Z,1.00
2023-02-20T00:56:49.872Z,1.00
2023-02-20T00:59:18.269Z,1.00
2023-02-20T01:01:46.671Z,1.00
2023-02-20T01:04:15.127Z,1.00
2023-02-20T01:06:43.516Z,1.00
2023-02-20T01:09:12.695Z,1.00
2023-02-20T01:11:46.157Z,1.00
2023-02-20T01:14:15.655Z,1.00
2023-02-20T01:16:52.819Z,1.00
2023-02-20T01:19:23.681Z,1.00
2023-02-20T01:21:53.578Z,1.00
2023-02-20T01:24:22.297Z,1.00
2023-02-20T01:26:51.171Z,1.00
2023-02-20T01:29:20.290Z,1.00
2023-02-20T01:31:50.698Z,1.00
2023-02-20T01:34:20.605Z,1.00
2023-02-20T01:36:54.137Z,1.00
2023-02-20T01:39:28.933Z,1.00
2023-02-20T01:42:01.250Z,1.00
2023-02-20T01:44:34.359Z,1.00
2023-02-20T01:47:10.058Z,1.00
2023-02-20T01:50:07.976Z,1.00
2023-02-20T01:52:39.813Z,1.00
2023-02-20T01:55:32.486Z,1.00
2023-02-20T01:58:32.421Z,1.00
2023-02-20T02:01:02.471Z,1.00
2023-02-20T02:03:34.850Z,1.00
2023-02-20T02:06:06.557Z,1.00
2023-02-20T02:08:38.547Z,1.00
2023-02-20T02:11:13.621Z,1.00
2023-02-20T02:13:44.655Z,1.00
2023-02-20T02:16:42.875Z,1.00
2023-02-20T02:19:48.180Z,1.00
2023-02-20T02:22:53.797Z,1.00
2023-02-20T02:25:51.166Z,1.00
2023-02-20T02:28:44.041Z,1.00
2023-02-20T02:31:33.800Z,1.00
2023-02-20T02:34:11.697Z,1.00
2023-02-20T02:37:03.311Z,1.00
2023-02-20T02:39:46.356Z,1.00
2023-02-20T02:42:44.938Z,1.00
2023-02-20T02:45:42.519Z,1.00
2023-02-20T02:48:38.519Z,1.00
2023-02-20T02:51:21.526Z,1.00
2023-02-20T02:54:13.622Z,1.00
2023-02-20T02:56:46.805Z,1.00
2023-02-20T02:59:25.352Z,1.00
2023-02-20T03:01:59.642Z,1.00
2023-02-20T03:04:29.568Z,1.00
2023-02-20T03:07:03.961Z,1.00
2023-02-20T03:09:40.346Z,1.00
2023-02-20T03:12:11.035Z,1.00
2023-02-20T03:15:04.019Z,1.00
2023-02-20T03:17:39.217Z,1.00
2023-02-20T03:20:11.649Z,1.00
2023-02-20T03:22:42.991Z,1.00
2023-02-20T03:25:20.673Z,1.00
2023-02-20T03:28:12.993Z,1.00
2023-02-20T03:30:50.449Z,1.00
2023-02-20T03:33:39.692Z,1.00
2023-02-20T03:36:29.562Z,1.00
2023-02-20T03:39:26.119Z,1.00
2023-02-20T03:42:15.853Z,1.00
2023-02-20T03:44:45.597Z,1.00
2023-02-20T03:47:18.664Z,1.00
2023-02-20T03:49:50.509Z,1.00
2023-02-20T03:52:19.479Z,1.00
2023-02-20T03:54:48.227Z,1.00
2023-02-20T03:57:35.608Z,1.00
2023-02-20T04:00:17.558Z,1.00
2023-02-20T04:02:48.775Z,1.00
2023-02-20T04:05:24.359Z,1.00
2023-02-20T04:08:23.427Z,1.00
2023-02-20T04:11:02.124Z,1.00
2023-02-20T04:13:32.516Z,1.00
2023-02-20T04:16:03.259Z,1.00
2023-02-20T04:18:33.355Z,1.00
2023-02-20T04:21:05.521Z,1.00
2023-02-20T04:23:38.748Z,1.00
2023-02-20T04:26:20.737Z,1.00
2023-02-20T04:28:49.673Z,1.00
2023-02-20T04:31:20.133Z,1.00
2023-02-20T04:33:48.819Z,1.00
2023-02-20T04:36:17.372Z,1.00
2023-02-20T04:38:45.746Z,1.00
2023-02-20T04:41:14.175Z,1.00
2023-02-20T04:43:42.509Z,1.00
2023-02-20T04:46:11.096Z,1.00
2023-02-20T04:48:39.650Z,1.00
2023-02-20T04:51:08.093Z,1.00
2023-02-20T04:53:36.461Z,1.00
2023-02-20T04:56:04.894Z,1.00
2023-02-20T04:58:37.639Z,1.00
2023-02-20T05:01:06.080Z,1.00
2023-02-20T05:03:34.416Z,1.00
2023-02-20T05:06:02.784Z,1.00
2023-02-20T05:08:33.259Z,1.00
2023-02-20T05:11:01.600Z,1.00
2023-02-20T05:13:29.949Z,1.00
2023-02-20T05:15:58.352Z,1.00
2023-02-20T05:18:31.013Z,1.00
2023-02-20T05:21:18.446Z,1.00
2023-02-20T05:23:49.632Z,1.00
2023-02-20T05:26:22.824Z,1.00
2023-02-20T05:28:51.205Z,1.00
2023-02-20T05:31:19.699Z,1.00
2023-02-20T05:33:48.233Z,1.00
2023-02-20T05:36:18.150Z,1.00
2023-02-20T05:38:49.936Z,1.00
2023-02-20T05:41:18.664Z,1.00
2023-02-20T05:43:47.418Z,1.00
2023-02-20T05:46:16.967Z,1.00
2023-02-20T05:48:45.406Z,1.00
2023-02-20T05:51:28.802Z,1.00
2023-02-20T05:53:57.737Z,1.00
2023-02-20T05:56:26.276Z,1.00
2023-02-20T05:58:54.656Z,1.00
2023-02-20T06:01:29.560Z,1.00
2023-02-20T06:03:58.368Z,1.00
2023-02-20T06:06:34.285Z,1.00
2023-02-20T06:09:02.921Z,1.00
2023-02-20T06:11:31.512Z,1.00
2023-02-20T06:13:59.917Z,1.00
2023-02-20T06:16:30.354Z,1.00
2023-02-20T06:19:00.964Z,1.00
2023-02-20T06:21:30.312Z,1.00
2023-02-20T06:23:58.922Z,1.00
2023-02-20T06:26:27.359Z,1.00
2023-02-20T06:28:55.814Z,1.00
2023-02-20T06:31:26.794Z,1.00
2023-02-20T06:33:55.277Z,1.00
2023-02-20T06:36:29.402Z,1.00
2023-02-20T06:38:58.291Z,1.00
2023-02-20T06:41:27.032Z,1.00
2023-02-20T06:43:55.949Z,1.00
2023-02-20T06:46:25.187Z,1.00
2023-02-20T06:48:56.256Z,1.00
2023-02-20T06:51:33.756Z,1.00
2023-02-20T06:54:03.542Z,1.00
2023-02-20T06:56:34.563Z,1.00
2023-02-20T06:59:05.447Z,1.00
2023-02-20T07:01:41.418Z,1.00
2023-02-20T07:04:20.886Z,1.00
2023-02-20T07:06:49.607Z,1.00
2023-02-20T07:09:18.353Z,1.00
2023-02-20T07:11:47.332Z,1.00
2023-02-20T07:14:15.704Z,1.00
2023-02-20T07:16:44.062Z,1.00
2023-02-20T07:19:12.513Z,1.00
2023-02-20T07:21:41.293Z,1.00
2023-02-20T07:24:09.797Z,1.00
2023-02-20T07:26:40.219Z,1.00
2023-02-20T07:29:09.009Z,1.00
2023-02-20T07:31:37.545Z,1.00
2023-02-20T07:34:05.981Z,1.00
2023-02-20T07:36:34.380Z,1.00
2023-02-20T07:39:03.941Z,1.00
2023-02-20T07:41:33.611Z,1.00
2023-02-20T07:44:02.194Z,1.00
2023-02-20T07:46:34.657Z,1.00
2023-02-20T07:49:05.427Z,1.00
2023-02-20T07:51:34.068Z,1.00
2023-02-20T07:54:02.751Z,1.00
2023-02-20T07:56:31.977Z,1.00
2023-02-20T07:59:01.039Z,1.00
2023-02-20T08:01:30.373Z,1.00
2023-02-20T08:03:58.749Z,1.00
2023-02-20T08:06:27.243Z,1.00
2023-02-20T08:08:55.719Z,1.00
2023-02-20T08:11:25.540Z,1.00
2023-02-20T08:13:56.408Z,1.00
2023-02-20T08:16:25.562Z,1.00
2023-02-20T08:18:54.819Z,1.00
2023-02-20T08:21:23.676Z,1.00
2023-02-20T08:23:53.459Z,1.00
2023-02-20T08:26:22.075Z,1.00
2023-02-20T08:28:51.580Z,1.00
2023-02-20T08:31:31.817Z,1.00
2023-02-20T08:34:01.503Z,1.00
2023-02-20T08:36:30.067Z,1.00
2023-02-20T08:38:58.919Z,1.00
2023-02-20T08:41:28.068Z,1.00
2023-02-20T08:43:56.804Z,1.00
2023-02-20T08:46:25.194Z,1.00
2023-02-20T08:48:53.597Z,1.00
2023-02-20T08:51:22.785Z,1.00
2023-02-20T08:53:51.141Z,1.00
2023-02-20T08:56:21.669Z,1.00
2023-02-20T08:58:50.061Z,1.00
2023-02-20T09:01:18.486Z,4.10
2023-02-20T09:03:47.011Z,2.70
2023-02-20T09:06:15.578Z,5.60
2023-02-20T09:08:43.996Z,5.00
2023-02-20T09:11:12.960Z,1.00
2023-02-20T09:13:48.281Z,1.00
2023-02-20T09:16:21.475Z,1.00
2023-02-20T09:18:50.853Z,1.00
2023-02-20T09:21:20.846Z,2.30
2023-02-20T09:23:49.378Z,4.50
2023-02-20T09:26:17.897Z,7.70
2023-02-20T09:28:46.506Z,3.60
2023-02-20T09:31:15.127Z,4.90
2023-02-20T09:33:51.141Z,6.80
2023-02-20T09:36:20.161Z,8.80
2023-02-20T09:38:48.725Z,10.50
2023-02-20T09:41:47.486Z,6.80
2023-02-20T09:44:19.011Z,1.00
2023-02-20T09:46:50.337Z,2.30
2023-02-20T09:49:26.902Z,1.00
2023-02-20T09:52:02.664Z,1.00
2023-02-20T09:54:48.918Z,2.80
2023-02-20T09:57:24.127Z,7.40
2023-02-20T09:59:55.437Z,8.10
2023-02-20T10:02:41.325Z,9.60
2023-02-20T10:05:24.041Z,11.80
2023-02-20T10:07:53.258Z,14.40
2023-02-20T10:10:40.339Z,9.80
2023-02-20T10:13:18.108Z,9.00
2023-02-20T10:16:11.268Z,3.90
2023-02-20T10:18:54.799Z,10.50
2023-02-20T10:21:41.716Z,12.60
2023-02-20T10:24:47.503Z,15.90
2023-02-20T10:27:26.802Z,13.40
2023-02-20T10:29:57.872Z,14.50
2023-02-20T10:32:41.152Z,15.50
2023-02-20T10:35:11.957Z,17.20
2023-02-20T10:37:48.296Z,15.00
2023-02-20T10:40:31.297Z,13.90
2023-02-20T10:43:10.389Z,16.20
2023-02-20T10:45:55.413Z,16.70
2023-02-20T10:48:30.107Z,14.70
2023-02-20T10:51:27.448Z,21.00
2023-02-20T10:54:09.959Z,25.30
2023-02-20T10:56:45.657Z,21.70
2023-02-20T10:59:41.742Z,17.90
2023-02-20T11:02:21.183Z,20.50
2023-02-20T11:05:14.629Z,21.20
2023-02-20T11:07:43.396Z,24.90
2023-02-20T11:10:11.874Z,32.90
2023-02-20T11:12:57.319Z,34.00
2023-02-20T11:15:34.426Z,31.30
2023-02-20T11:18:04.196Z,36.80
2023-02-20T11:20:39.465Z,42.50
2023-02-20T11:23:08.386Z,47.90
2023-02-20T11:25:38.781Z,49.70
2023-02-20T11:28:13.360Z,54.80
2023-02-20T11:30:44.992Z,55.40
2023-02-20T11:33:19.866Z,58.00
2023-02-20T11:36:20.109Z,57.90
2023-02-20T11:38:50.177Z,61.80
2023-02-20T11:41:25.990Z,56.30
2023-02-20T11:44:21.583Z,56.90
2023-02-20T11:47:09.221Z,53.40
2023-02-20T11:49:37.908Z,53.70
2023-02-20T11:52:25.865Z,53.10
2023-02-20T11:55:21.851Z,48.30
2023-02-20T11:57:51.561Z,45.50
2023-02-20T12:00:29.716Z,48.40
2023-02-20T12:03:15.365Z,43.60
2023-02-20T12:05:50.129Z,55.50
2023-02-20T12:08:35.062Z,60.80
2023-02-20T12:11:22.209Z,59.90
2023-02-20T12:13:53.620Z,56.80
2023-02-20T12:16:58.851Z,57.40
2023-02-20T12:19:36.894Z,55.70
2023-02-20T12:22:33.309Z,55.90
2023-02-20T12:25:25.854Z,56.40
2023-02-20T12:28:24.340Z,56.80
2023-02-20T12:31:21.410Z,52.60
2023-02-20T12:34:06.020Z,52.50
2023-02-20T12:36:34.344Z,49.70
2023-02-20T12:39:23.005Z,50.70
2023-02-20T12:42:28.802Z,53.30
2023-02-20T12:45:22.069Z,53.30
2023-02-20T12:48:14.233Z,51.70
2023-02-20T12:50:58.527Z,38.10
2023-02-20T12:53:33.112Z,40.60
2023-02-20T12:56:39.043Z,37.10
2023-02-20T12:59:16.191Z,30.00
2023-02-20T13:01:45.593Z,39.90
2023-02-20T13:04:26.169Z,44.00
2023-02-20T13:07:16.270Z,51.10
2023-02-20T13:09:50.753Z,53.60
2023-02-20T13:12:19.142Z,62.60
2023-02-20T13:15:06.795Z,60.40
2023-02-20T13:17:44.183Z,62.70
2023-02-20T13:20:34.292Z,68.60
2023-02-20T13:23:06.717Z,73.70
2023-02-20T13:25:35.252Z,79.40
2023-02-20T13:28:35.752Z,80.50
2023-02-20T13:31:24.171Z,75.80
2023-02-20T13:34:16.558Z,82.20
2023-02-20T13:36:49.913Z,79.80
2023-02-20T13:39:21.510Z,80.70
2023-02-20T13:41:56.008Z,80.20
2023-02-20T13:44:36.495Z,79.10
2023-02-20T13:47:32.411Z,76.20
2023-02-20T13:50:01.773Z,79.50
2023-02-20T13:52:37.023Z,77.00
2023-02-20T13:55:11.672Z,76.30
2023-02-20T13:57:46.521Z,79.60
2023-02-20T14:00:27.087Z,73.10
2023-02-20T14:02:56.315Z,80.10
2023-02-20T14:05:31.517Z,81.30
2023-02-20T14:08:01.249Z,81.30
2023-02-20T14:10:38.097Z,81.40
2023-02-20T14:13:38.979Z,83.80
2023-02-20T14:16:41.621Z,85.90
2023-02-20T14:19:28.920Z,85.80
2023-02-20T14:21:57.365Z,87.30
2023-02-20T14:24:30.628Z,89.60
2023-02-20T14:27:00.146Z,84.90
2023-02-20T14:29:32.614Z,83.80
2023-02-20T14:32:03.758Z,85.10
2023-02-20T14:34:32.239Z,90.00
2023-02-20T14:37:00.559Z,90.80
2023-02-20T14:39:42.144Z,90.20
2023-02-20T14:42:24.965Z,86.60
2023-02-20T14:45:05.831Z,82.30
2023-02-20T14:47:36.339Z,86.30
2023-02-20T14:50:27.794Z,83.00
2023-02-20T14:53:12.013Z,83.60
2023-02-20T14:55:40.813Z,83.90
2023-02-20T14:58:17.037Z,78.30
2023-02-20T15:00:46.525Z,78.50
2023-02-20T15:03:31.391Z,78.00
2023-02-20T15:06:07.770Z,77.20
2023-02-20T15:08:39.063Z,74.20
2023-02-20T15:11:13.529Z,69.40
2023-02-20T15:13:47.605Z,69.50
2023-02-20T15:16:25.563Z,71.70
2023-02-20T15:18:54.549Z,66.60
2023-02-20T15:21:42.018Z,64.60
2023-02-20T15:24:38.714Z,63.00
2023-02-20T15:27:09.828Z,64.50
2023-02-20T15:29:38.182Z,61.70
2023-02-20T15:32:30.830Z,66.20
2023-02-20T15:34:59.314Z,66.40
2023-02-20T15:37:38.656Z,58.80
2023-02-20T15:40:29.774Z,58.50
2023-02-20T15:42:58.560Z,57.90
2023-02-20T15:45:31.806Z,60.00
2023-02-20T15:48:00.275Z,55.50
2023-02-20T15:50:28.813Z,59.90
2023-02-20T15:52:59.355Z,54.90
2023-02-20T15:55:29.340Z,47.60
2023-02-20T15:57:59.305Z,43.90
2023-02-20T16:00:33.917Z,44.50
2023-02-20T16:03:03.142Z,50.90
2023-02-20T16:05:31.912Z,45.50
2023-02-20T16:08:00.465Z,30.20
2023-02-20T16:10:28.947Z,36.80
2023-02-20T16:12:59.644Z,37.20
2023-02-20T16:15:28.725Z,30.50
2023-02-20T16:17:57.643Z,28.10
2023-02-20T16:20:31.670Z,31.00
2023-02-20T16:23:00.138Z,34.90
2023-02-20T16:25:28.551Z,25.90
2023-02-20T16:27:57.606Z,12.40
2023-02-20T16:30:34.595Z,4.30
2023-02-20T16:33:09.870Z,1.00
2023-02-20T16:35:38.326Z,6.40
2023-02-20T16:38:06.679Z,7.70
2023-02-20T16:40:35.130Z,5.40
2023-02-20T16:43:03.526Z,1.00
2023-02-20T16:45:31.921Z,3.80
2023-02-20T16:48:00.516Z,2.10
2023-02-20T16:50:31.247Z,1.00
2023-02-20T16:53:04.001Z,1.00
2023-02-20T16:55:38.047Z,1.00
2023-02-20T16:58:07.260Z,1.00
2023-02-20T17:00:47.810Z,1.00
2023-02-20T17:03:25.411Z,1.00
2023-02-20T17:06:00.157Z,1.00
2023-02-20T17:08:29.845Z,1.00
2023-02-20T17:10:58.273Z,1.00
2023-02-20T17:13:26.683Z,1.00
2023-02-20T17:15:55.176Z,1.00
2023-02-20T17:18:23.741Z,1.00
2023-02-20T17:20:52.756Z,1.00
2023-02-20T17:23:21.195Z,1.00
2023-02-20T17:25:49.751Z,1.00
2023-02-20T17:28:18.219Z,1.00
2023-02-20T17:30:48.552Z,1.00
2023-02-20T17:33:16.993Z,1.00
2023-02-20T17:35:46.561Z,1.00
2023-02-20T17:38:15.031Z,1.00
2023-02-20T17:40:43.385Z,1.00
2023-02-20T17:43:12.095Z,1.00
2023-02-20T17:45:40.475Z,1.00
2023-02-20T17:48:09.255Z,1.00
2023-02-20T17:50:37.826Z,1.00
2023-02-20T17:53:06.233Z,1.00
2023-02-20T17:55:34.577Z,1.00
2023-02-20T17:58:03.112Z,1.00
2023-02-20T18:00:31.473Z,1.00
2023-02-20T18:02:59.811Z,1.00
2023-02-20T18:05:28.184Z,1.00
2023-02-20T18:07:56.627Z,1.00
2023-02-20T18:10:25.038Z,1.00
2023-02-20T18:13:13.624Z,1.00
2023-02-20T18:15:44.066Z,1.00
2023-02-20T18:18:14.656Z,1.00
2023-02-20T18:20:43.566Z,1.00
2023-02-20T18:23:12.625Z,1.00
2023-02-20T18:25:41.385Z,1.00
2023-02-20T18:28:10.913Z,1.00
2023-02-20T18:30:40.035Z,1.00
2023-02-20T18:33:08.785Z,1.00
2023-02-20T18:35:37.368Z,1.00
2023-02-20T18:38:06.443Z,1.00
2023-02-20T18:40:34.952Z,1.00
2023-02-20T18:43:03.339Z,1.00
2023-02-20T18:45:31.715Z,1.00
2023-02-20T18:48:00.101Z,1.00
2023-02-20T18:50:28.454Z,1.00
2023-02-20T18:52:56.918Z,1.00
2023-02-20T18:55:25.362Z,1.00
2023-02-20T18:57:54.210Z,1.00
2023-02-20T19:00:28.989Z,1.00
2023-02-20T19:02:59.185Z,1.00
2023-02-20T19:05:27.538Z,1.00
2023-02-20T19:07:56.201Z,1.00
2023-02-20T19:10:26.864Z,1.00
2023-02-20T19:12:55.685Z,1.00
2023-02-20T19:15:25.730Z,1.00
2023-02-20T19:17:55.372Z,1.00
2023-02-20T19:20:29.607Z,1.00
2023-02-20T19:22:59.570Z,1.00
2023-02-20T19:25:27.964Z,1.00
2023-02-20T19:27:56.431Z,1.00
2023-02-20T19:30:25.043Z,1.00
2023-02-20T19:32:53.489Z,1.00
2023-02-20T19:35:22.173Z,1.00
2023-02-20T19:37:50.517Z,1.00
2023-02-20T19:40:19.022Z,1.00
2023-02-20T19:42:47.410Z,1.00
2023-02-20T19:45:15.754Z,1.00
2023-02-20T19:47:44.083Z,1.00
2023-02-20T19:50:12.721Z,1.00
2023-02-20T19:52:43.357Z,1.00
2023-02-20T19:55:19.087Z,1.00
2023-02-20T19:57:47.464Z,1.00
2023-02-20T20:00:21.449Z,1.00
2023-02-20T20:02:49.977Z,1.00
2023-02-20T20:05:19.311Z,1.00
2023-02-20T20:07:48.266Z,1.00
2023-02-20T20:10:17.054Z,1.00
2023-02-20T20:12:48.436Z,1.00
2023-02-20T20:15:22.604Z,1.00
2023-02-20T20:17:56.821Z,1.00
2023-02-20T20:20:26.477Z,1.00
2023-02-20T20:22:58.124Z,1.00
2023-02-20T20:25:26.456Z,1.00
2023-02-20T20:27:56.406Z,1.00
2023-02-20T20:30:27.873Z,1.00
2023-02-20T20:32:57.729Z,1.00
2023-02-20T20:35:27.852Z,1.00
2023-02-20T20:37:57.141Z,1.00
2023-02-20T20:40:27.008Z,1.00
2023-02-20T20:42:56.285Z,1.00
2023-02-20T20:45:25.078Z,1.00
2023-02-20T20:47:53.524Z,1.00
2023-02-20T20:50:24.752Z,1.00
2023-02-20T20:52:53.584Z,1.00
2023-02-20T20:55:21.907Z,1.00
2023-02-20T20:57:52.613Z,1.00
2023-02-20T21:00:25.445Z,1.00
2023-02-20T21:02:54.976Z,1.00
2023-02-20T21:05:27.068Z,1.00
2023-02-20T21:07:55.760Z,1.00
2023-02-20T21:10:24.608Z,1.00
2023-02-20T21:12:54.049Z,1.00
2023-02-20T21:15:24.150Z,1.00
2023-02-20T21:17:53.384Z,1.00
2023-02-20T21:20:25.419Z,1.00
2023-02-20T21:22:55.085Z,1.00
2023-02-20T21:25:27.554Z,1.00
2023-02-20T21:27:57.730Z,1.00
2023-02-20T21:30:28.238Z,1.00
2023-02-20T21:32:56.793Z,1.00
2023-02-20T21:35:26.849Z,1.00
2023-02-20T21:37:56.362Z,1.00
2023-02-20T21:40:24.789Z,1.00
2023-02-20T21:43:11.436Z,1.00
2023-02-20T21:45:40.568Z,1.00
2023-02-20T21:48:09.213Z,1.00
2023-02-20T21:50:37.697Z,1.00
2023-02-20T21:53:06.284Z,1.00
2023-02-20T21:55:34.659Z,1.00
2023-02-20T21:58:03.042Z,1.00
2023-02-20T22:00:31.318Z,1.00
2023-02-20T22:02:59.494Z,1.00
2023-02-20T22:05:27.790Z,1.00
2023-02-20T22:08:14.489Z,1.00
2023-02-20T22:11:01.457Z,1.00
2023-02-20T22:13:48.228Z,1.00
2023-02-20T22:16:40.635Z,1.00
2023-02-20T22:19:27.377Z,1.00
2023-02-20T22:22:14.287Z,1.00
2023-02-20T22:25:01.146Z,1.00
2023-02-20T22:27:47.876Z,1.00
2023-02-20T22:30:34.823Z,1.00
2023-02-20T22:33:21.896Z,1.00
2023-02-20T22:36:08.616Z,1.00
2023-02-20T22:38:55.560Z,1.00
2023-02-20T22:41:42.243Z,1.00
2023-02-20T22:44:29.140Z,1.00
2023-02-20T22:47:15.921Z,1.00
2023-02-20T22:50:02.752Z,1.00
2023-02-20T22:52:49.483Z,1.00
2023-02-20T22:55:36.620Z,1.00
2023-02-20T22:58:23.320Z,1.00
2023-02-20T23:01:10.149Z,1.00
2023-02-20T23:03:58.774Z,1.00
2023-02-20T23:06:45.740Z,1.00
2023-02-20T23:09:33.059Z,1.00
2023-02-20T23:12:19.753Z,1.00
2023-02-20T23:15:06.399Z,1.00
2023-02-20T23:17:53.336Z,1.00
2023-02-20T23:20:42.599Z,1.00
2023-02-20T23:23:31.296Z,1.00
2023-02-20T23:26:18.255Z,1.00
2023-02-20T23:29:05.589Z,1.00
2023-02-20T23:31:55.526Z,1.00
2023-02-20T23:34:42.843Z,1.00
2023-02-20T23:37:30.185Z,1.00
2023-02-20T23:40:21.169Z,1.00
2023-02-20T23:43:11.957Z,1.00
2023-02-20T23:45:58.894Z,1.00
2023-02-20T23:48:45.665Z,1.00
2023-02-20T23:51:33.138Z,1.00
2023-02-20T23:54:20.031Z,1.00
2023-02-20T23:57:06.819Z,1.00
2023-02-20T23:59:53.808Z,1.00
